createdAt,value
2022-09-21T00:00:04.772Z,676.60
2022-09-21T00:01:04.829Z,676.59
2022-09-21T00:02:04.761Z,676.59
2022-09-21T00:03:04.757Z,676.59
2022-09-21T00:04:04.724Z,676.59
2022-09-21T00:05:04.737Z,676.59
2022-09-21T00:06:04.706Z,676.60
2022-09-21T00:07:04.697Z,676.59
2022-09-21T00:08:04.687Z,676.58
2022-09-21T00:09:04.717Z,676.58
2022-09-21T00:10:04.733Z,676.59
2022-09-21T00:11:04.657Z,676.59
2022-09-21T00:12:04.709Z,676.59
2022-09-21T00:13:04.656Z,676.58
2022-09-21T00:14:04.802Z,676.59
2022-09-21T00:15:04.697Z,676.58
2022-09-21T00:16:04.707Z,676.57
2022-09-21T00:17:04.804Z,676.59
2022-09-21T00:18:04.717Z,676.59
2022-09-21T00:19:04.697Z,676.58
2022-09-21T00:20:04.827Z,676.59
2022-09-21T00:21:04.681Z,676.58
2022-09-21T00:22:04.777Z,676.58
2022-09-21T00:23:04.638Z,676.58
2022-09-21T00:24:04.672Z,676.58
2022-09-21T00:25:04.617Z,676.59
2022-09-21T00:26:04.621Z,676.58
2022-09-21T00:27:04.693Z,676.58
2022-09-21T00:28:04.697Z,676.58
2022-09-21T00:29:04.617Z,676.59
2022-09-21T00:30:04.620Z,676.59
2022-09-21T00:31:04.685Z,676.58
2022-09-21T00:32:04.815Z,676.58
2022-09-21T00:33:04.646Z,676.58
2022-09-21T00:34:04.689Z,676.59
2022-09-21T00:35:04.637Z,676.58
2022-09-21T00:36:04.689Z,676.58
2022-09-21T00:37:04.361Z,676.57
2022-09-21T00:38:04.365Z,676.58
2022-09-21T00:39:04.357Z,676.58
2022-09-21T00:40:04.502Z,676.58
2022-09-21T00:41:04.317Z,676.59
2022-09-21T00:42:04.298Z,676.59
2022-09-21T00:43:04.309Z,676.59
2022-09-21T00:44:04.273Z,676.59
2022-09-21T00:45:04.297Z,676.59
2022-09-21T00:46:04.303Z,676.58
2022-09-21T00:47:04.257Z,676.59
2022-09-21T00:48:04.265Z,676.58
2022-09-21T00:49:04.249Z,676.59
2022-09-21T00:50:04.245Z,676.58
2022-09-21T00:51:04.213Z,676.59
2022-09-21T00:52:04.192Z,676.57
2022-09-21T00:53:04.205Z,676.58
2022-09-21T00:54:04.186Z,676.58
2022-09-21T00:55:04.165Z,676.58
2022-09-21T00:56:04.141Z,676.58
2022-09-21T00:57:04.186Z,676.57
2022-09-21T00:58:04.119Z,676.58
2022-09-21T00:59:04.145Z,676.58
2022-09-21T01:00:04.106Z,676.58
2022-09-21T01:01:04.161Z,676.58
2022-09-21T01:02:04.144Z,676.59
2022-09-21T01:03:04.125Z,676.59
2022-09-21T01:04:04.158Z,676.59
2022-09-21T01:05:04.186Z,676.58
2022-09-21T01:06:04.246Z,676.57
2022-09-21T01:07:04.237Z,676.58
2022-09-21T01:08:04.285Z,676.59
2022-09-21T01:09:04.286Z,676.59
2022-09-21T01:10:04.002Z,676.57
2022-09-21T01:11:04.102Z,676.58
2022-09-21T01:12:03.970Z,676.59
2022-09-21T01:13:03.986Z,676.59
2022-09-21T01:14:03.966Z,676.58
2022-09-21T01:15:03.941Z,676.59
2022-09-21T01:16:03.961Z,676.59
2022-09-21T01:17:03.958Z,676.60
2022-09-21T01:18:03.898Z,676.59
2022-09-21T01:19:03.906Z,676.59
2022-09-21T01:20:03.879Z,676.59
2022-09-21T01:21:04.110Z,676.58
2022-09-21T01:22:03.850Z,676.57
2022-09-21T01:23:03.847Z,676.59
2022-09-21T01:24:03.852Z,676.59
2022-09-21T01:25:03.845Z,676.58
2022-09-21T01:26:03.800Z,676.60
2022-09-21T01:27:03.842Z,676.59
2022-09-21T01:28:03.808Z,676.59
2022-09-21T01:29:03.810Z,676.59
2022-09-21T01:30:03.759Z,676.59
2022-09-21T01:31:03.770Z,676.59
2022-09-21T01:32:03.790Z,676.58
2022-09-21T01:33:03.726Z,676.59
2022-09-21T01:34:03.754Z,676.59
2022-09-21T01:35:03.730Z,676.59
2022-09-21T01:36:03.714Z,676.59
2022-09-21T01:37:03.695Z,676.59
2022-09-21T01:38:03.726Z,676.58
2022-09-21T01:39:03.698Z,676.58
2022-09-21T01:40:03.751Z,676.59
2022-09-21T01:41:03.678Z,676.59
2022-09-21T01:42:03.642Z,676.59
2022-09-21T01:43:03.638Z,676.58
2022-09-21T01:44:03.606Z,676.59
2022-09-21T01:45:03.638Z,676.59
2022-09-21T01:46:03.708Z,676.59
2022-09-21T01:47:03.595Z,676.60
2022-09-21T01:48:03.600Z,676.58
2022-09-21T01:49:03.562Z,676.59
2022-09-21T01:50:03.580Z,676.60
2022-09-21T01:51:03.527Z,676.59
2022-09-21T01:52:03.527Z,676.59
2022-09-21T01:53:03.557Z,676.59
2022-09-21T01:54:03.520Z,676.59
2022-09-21T01:55:03.486Z,676.59
2022-09-21T01:56:03.539Z,676.59
2022-09-21T01:57:03.467Z,676.59
2022-09-21T01:58:03.463Z,676.59
2022-09-21T01:59:03.479Z,676.59
2022-09-21T02:00:03.447Z,676.59
2022-09-21T02:01:03.482Z,676.59
2022-09-21T02:02:03.449Z,676.60
2022-09-21T02:03:03.386Z,676.59
2022-09-21T02:04:03.398Z,676.59
2022-09-21T02:05:03.390Z,676.59
2022-09-21T02:06:03.387Z,676.59
2022-09-21T02:07:03.370Z,676.59
2022-09-21T02:08:03.364Z,676.59
2022-09-21T02:09:03.343Z,676.59
2022-09-21T02:10:03.339Z,676.58
2022-09-21T02:11:03.331Z,676.58
2022-09-21T02:12:03.351Z,676.58
2022-09-21T02:13:03.311Z,676.59
2022-09-21T02:14:03.312Z,676.59
2022-09-21T02:15:03.279Z,676.58
2022-09-21T02:16:03.301Z,676.59
2022-09-21T02:17:03.259Z,676.59
2022-09-21T02:18:03.247Z,676.59
2022-09-21T02:19:03.245Z,676.60
2022-09-21T02:20:03.208Z,676.59
2022-09-21T02:21:03.200Z,676.58
2022-09-21T02:22:03.192Z,676.59
2022-09-21T02:23:03.169Z,676.59
2022-09-21T02:24:03.167Z,676.59
2022-09-21T02:25:03.168Z,676.59
2022-09-21T02:26:03.148Z,676.60
2022-09-21T02:27:03.128Z,676.59
2022-09-21T02:28:03.148Z,676.60
2022-09-21T02:29:03.915Z,676.59
2022-09-21T02:30:03.124Z,676.59
2022-09-21T02:31:03.126Z,676.59
2022-09-21T02:32:03.129Z,676.58
2022-09-21T02:33:03.072Z,676.59
2022-09-21T02:34:03.080Z,676.58
2022-09-21T02:35:03.072Z,676.58
2022-09-21T02:36:03.064Z,676.59
2022-09-21T02:37:03.048Z,676.59
2022-09-21T02:38:03.041Z,676.59
2022-09-21T02:39:03.016Z,676.60
2022-09-21T02:40:03.033Z,676.58
2022-09-21T02:41:03.040Z,676.59
2022-09-21T02:42:02.974Z,676.59
2022-09-21T02:43:03.080Z,676.58
2022-09-21T02:44:02.951Z,676.58
2022-09-21T02:45:02.946Z,676.58
2022-09-21T02:46:02.948Z,676.59
2022-09-21T02:47:02.900Z,676.59
2022-09-21T02:48:02.928Z,676.59
2022-09-21T02:49:02.908Z,676.60
2022-09-21T02:50:02.882Z,676.58
2022-09-21T02:51:02.848Z,676.60
2022-09-21T02:52:02.868Z,676.58
2022-09-21T02:53:02.847Z,676.59
2022-09-21T02:54:02.856Z,676.59
2022-09-21T02:55:02.816Z,676.59
2022-09-21T02:56:02.810Z,676.60
2022-09-21T02:57:02.800Z,676.58
2022-09-21T02:58:02.819Z,676.60
2022-09-21T02:59:02.792Z,676.59
2022-09-21T03:00:02.770Z,676.59
2022-09-21T03:01:02.831Z,676.60
2022-09-21T03:02:02.789Z,676.60
2022-09-21T03:03:02.720Z,676.59
2022-09-21T03:04:02.719Z,676.60
2022-09-21T03:05:02.762Z,676.60
2022-09-21T03:06:02.727Z,676.59
2022-09-21T03:07:02.672Z,676.58
2022-09-21T03:08:02.688Z,676.60
2022-09-21T03:09:02.661Z,676.58
2022-09-21T03:10:02.680Z,676.59
2022-09-21T03:11:58.356Z,676.59
2022-09-21T03:12:58.264Z,676.58
2022-09-21T03:13:58.256Z,676.59
2022-09-21T03:14:58.264Z,676.59
2022-09-21T03:15:58.329Z,676.59
2022-09-21T03:16:58.216Z,676.59
2022-09-21T03:17:58.216Z,676.59
2022-09-21T03:18:58.196Z,676.59
2022-09-21T03:19:58.206Z,676.59
2022-09-21T03:20:59.144Z,676.59
2022-09-21T03:21:58.177Z,676.59
2022-09-21T03:22:58.144Z,676.59
2022-09-21T03:23:58.158Z,676.60
2022-09-21T03:24:58.124Z,676.59
2022-09-21T03:25:58.224Z,676.59
2022-09-21T03:26:58.117Z,676.59
2022-09-21T03:27:58.104Z,676.59
2022-09-21T03:28:58.092Z,676.60
2022-09-21T03:30:01.969Z,676.59
2022-09-21T03:30:58.109Z,676.60
2022-09-21T03:31:58.080Z,676.60
2022-09-21T03:32:58.054Z,676.60
2022-09-21T03:33:58.045Z,676.59
2022-09-21T03:34:58.005Z,676.60
2022-09-21T03:35:58.006Z,676.59
2022-09-21T03:36:58.004Z,676.60
2022-09-21T03:37:57.999Z,676.60
2022-09-21T03:38:57.985Z,676.59
2022-09-21T03:39:57.970Z,676.60
2022-09-21T03:40:58.250Z,676.60
2022-09-21T03:41:57.946Z,676.59
2022-09-21T03:42:57.929Z,676.60
2022-09-21T03:43:57.931Z,676.60
2022-09-21T03:44:57.899Z,676.60
2022-09-21T03:45:57.958Z,676.60
2022-09-21T03:46:57.886Z,676.60
2022-09-21T03:47:57.876Z,676.60
2022-09-21T03:48:57.864Z,676.60
2022-09-21T03:49:57.864Z,676.60
2022-09-21T03:50:57.843Z,676.59
2022-09-21T03:51:57.866Z,676.59
2022-09-21T03:52:57.814Z,676.59
2022-09-21T03:53:57.814Z,676.59
2022-09-21T03:54:57.806Z,676.60
2022-09-21T03:55:57.786Z,676.59
2022-09-21T03:56:57.766Z,676.60
2022-09-21T03:57:57.774Z,676.59
2022-09-21T03:58:57.849Z,676.60
2022-09-21T03:59:57.746Z,676.60
2022-09-21T04:00:57.733Z,676.60
2022-09-21T04:01:57.726Z,676.59
2022-09-21T04:02:57.760Z,676.60
2022-09-21T04:03:57.694Z,676.60
2022-09-21T04:04:57.698Z,676.59
2022-09-21T04:05:57.678Z,676.60
2022-09-21T04:06:57.665Z,676.59
2022-09-21T04:07:57.665Z,676.60
2022-09-21T04:08:57.645Z,676.59
2022-09-21T04:09:57.633Z,676.59
2022-09-21T04:10:57.625Z,676.59
2022-09-21T04:11:57.613Z,676.59
2022-09-21T04:12:57.625Z,676.60
2022-09-21T04:13:57.581Z,676.59
2022-09-21T04:14:57.577Z,676.59
2022-09-21T04:15:57.643Z,676.59
2022-09-21T04:16:57.555Z,676.60
2022-09-21T04:17:57.545Z,676.59
2022-09-21T04:18:57.516Z,676.59
2022-09-21T04:19:57.533Z,676.59
2022-09-21T04:20:57.506Z,676.59
2022-09-21T04:21:57.505Z,676.60
2022-09-21T04:22:57.479Z,676.59
2022-09-21T04:23:57.474Z,676.59
2022-09-21T04:24:57.473Z,676.59
2022-09-21T04:25:57.476Z,676.59
2022-09-21T04:26:57.425Z,676.58
2022-09-21T04:27:57.435Z,676.60
2022-09-21T04:28:57.517Z,676.60
2022-09-21T04:29:57.407Z,676.59
2022-09-21T04:30:57.418Z,676.59
2022-09-21T04:31:57.388Z,676.59
2022-09-21T04:32:57.365Z,676.61
2022-09-21T04:33:57.365Z,676.59
2022-09-21T04:34:57.365Z,676.59
2022-09-21T04:35:57.334Z,676.60
2022-09-21T04:36:57.313Z,676.60
2022-09-21T04:37:57.315Z,676.59
2022-09-21T04:38:57.293Z,676.61
2022-09-21T04:39:57.306Z,676.59
2022-09-21T04:40:57.404Z,676.59
2022-09-21T04:41:57.267Z,676.60
2022-09-21T04:42:57.243Z,676.61
2022-09-21T04:43:57.309Z,676.58
2022-09-21T04:44:57.237Z,676.59
2022-09-21T04:45:57.264Z,676.60
2022-09-21T04:46:57.205Z,676.59
2022-09-21T04:48:04.423Z,676.59
2022-09-21T04:48:57.183Z,676.59
2022-09-21T04:49:57.183Z,676.59
2022-09-21T04:50:57.184Z,676.59
2022-09-21T04:51:57.167Z,676.60
2022-09-21T04:52:57.147Z,676.59
2022-09-21T04:53:57.140Z,676.59
2022-09-21T04:54:57.118Z,676.60
2022-09-21T04:55:57.136Z,676.60
2022-09-21T04:56:57.115Z,676.60
2022-09-21T04:57:57.108Z,676.59
2022-09-21T04:58:57.143Z,676.59
2022-09-21T04:59:57.088Z,676.60
2022-09-21T05:00:57.084Z,676.59
2022-09-21T05:01:57.055Z,676.59
2022-09-21T05:02:57.047Z,676.60
2022-09-21T05:03:57.035Z,676.58
2022-09-21T05:04:57.011Z,676.59
2022-09-21T05:05:57.022Z,676.60
2022-09-21T05:06:57.016Z,676.59
2022-09-21T05:07:56.996Z,676.60
2022-09-21T05:08:56.968Z,676.59
2022-09-21T05:09:56.964Z,676.60
2022-09-21T05:10:56.948Z,676.60
2022-09-21T05:11:56.997Z,676.59
2022-09-21T05:12:56.924Z,676.59
2022-09-21T05:13:56.951Z,676.60
2022-09-21T05:14:56.903Z,676.60
2022-09-21T05:15:56.931Z,676.59
2022-09-21T05:16:56.915Z,676.60
2022-09-21T05:17:56.888Z,676.59
2022-09-21T05:18:56.856Z,676.58
2022-09-21T05:19:56.849Z,676.60
2022-09-21T05:20:56.853Z,676.59
2022-09-21T05:21:56.844Z,676.59
2022-09-21T05:22:56.828Z,676.59
2022-09-21T05:23:56.796Z,676.59
2022-09-21T05:24:56.785Z,676.60
2022-09-21T05:25:56.777Z,676.59
2022-09-21T05:26:56.776Z,676.59
2022-09-21T05:27:56.756Z,676.60
2022-09-21T05:28:56.752Z,676.60
2022-09-21T05:29:56.748Z,676.59
2022-09-21T05:31:16.574Z,676.60
2022-09-21T05:31:57.996Z,676.60
2022-09-21T05:32:56.713Z,676.59
2022-09-21T05:33:56.700Z,676.60
2022-09-21T05:34:56.676Z,676.60
2022-09-21T05:35:56.677Z,676.59
2022-09-21T05:36:56.656Z,676.59
2022-09-21T05:37:56.656Z,676.59
2022-09-21T05:38:56.617Z,676.60
2022-09-21T05:39:56.625Z,676.60
2022-09-21T05:40:56.649Z,676.60
2022-09-21T05:41:56.600Z,676.60
2022-09-21T05:42:56.617Z,676.59
2022-09-21T05:43:56.592Z,676.59
2022-09-21T05:44:56.569Z,676.59
2022-09-21T05:45:56.608Z,676.60
2022-09-21T05:46:56.580Z,676.60
2022-09-21T05:47:56.614Z,676.59
2022-09-21T05:48:56.648Z,676.60
2022-09-21T05:49:56.589Z,676.59
2022-09-21T05:50:56.737Z,676.59
2022-09-21T05:51:56.717Z,676.59
2022-09-21T05:52:56.755Z,676.59
2022-09-21T05:53:56.777Z,676.59
2022-09-21T05:54:56.526Z,676.59
2022-09-21T05:55:56.489Z,676.59
2022-09-21T05:56:56.426Z,676.59
2022-09-21T05:57:56.464Z,676.60
2022-09-21T05:58:56.438Z,676.60
2022-09-21T05:59:56.413Z,676.59
2022-09-21T06:00:56.441Z,676.61
2022-09-21T06:01:56.390Z,676.60
2022-09-21T06:02:56.367Z,676.59
2022-09-21T06:03:56.400Z,676.60
2022-09-21T06:04:56.356Z,676.59
2022-09-21T06:05:56.338Z,676.60
2022-09-21T06:06:56.317Z,676.59
2022-09-21T06:07:56.328Z,676.59
2022-09-21T06:08:56.308Z,676.59
2022-09-21T06:09:56.512Z,676.60
2022-09-21T06:10:56.277Z,676.60
2022-09-21T06:11:56.278Z,676.60
2022-09-21T06:12:56.246Z,676.59
2022-09-21T06:13:56.247Z,676.60
2022-09-21T06:14:56.269Z,676.59
2022-09-21T06:15:56.261Z,676.60
2022-09-21T06:16:56.266Z,676.59
2022-09-21T06:17:56.197Z,676.60
2022-09-21T06:18:56.186Z,676.59
2022-09-21T06:19:56.217Z,676.59
2022-09-21T06:20:56.153Z,676.59
2022-09-21T06:21:57.605Z,676.59
2022-09-21T06:22:56.133Z,676.59
2022-09-21T06:23:56.126Z,676.60
2022-09-21T06:24:56.141Z,676.59
2022-09-21T06:25:58.618Z,676.60
2022-09-21T06:26:56.094Z,676.60
2022-09-21T06:27:56.105Z,676.59
2022-09-21T06:28:56.106Z,676.60
2022-09-21T06:29:56.665Z,676.60
2022-09-21T06:30:56.122Z,676.58
2022-09-21T06:31:56.067Z,676.60
2022-09-21T06:32:56.025Z,676.60
2022-09-21T06:33:56.033Z,676.60
2022-09-21T06:34:55.994Z,676.59
2022-09-21T06:35:56.007Z,676.59
2022-09-21T06:36:56.006Z,676.60
2022-09-21T06:37:55.977Z,676.59
2022-09-21T06:38:55.957Z,676.60
2022-09-21T06:39:55.951Z,676.60
2022-09-21T06:40:55.937Z,676.61
2022-09-21T06:41:56.177Z,676.60
2022-09-21T06:42:55.927Z,676.60
2022-09-21T06:43:55.913Z,676.59
2022-09-21T06:44:55.906Z,676.59
2022-09-21T06:45:55.980Z,676.61
2022-09-21T06:46:55.910Z,676.59
2022-09-21T06:47:55.847Z,676.58
2022-09-21T06:48:55.856Z,676.60
2022-09-21T06:49:55.834Z,676.59
2022-09-21T06:50:55.830Z,676.60
2022-09-21T06:51:55.814Z,676.60
2022-09-21T06:52:55.814Z,676.60
2022-09-21T06:53:55.805Z,676.59
2022-09-21T06:54:55.785Z,676.60
2022-09-21T06:55:55.758Z,676.58
2022-09-21T06:56:59.812Z,676.59
2022-09-21T06:57:55.734Z,676.60
2022-09-21T06:58:55.758Z,676.59
2022-09-21T06:59:55.734Z,676.60
2022-09-21T07:00:55.815Z,676.60
2022-09-21T07:01:55.846Z,676.60
2022-09-21T07:02:55.686Z,676.61
2022-09-21T07:03:55.722Z,676.60
2022-09-21T07:04:55.686Z,676.60
2022-09-21T07:05:55.649Z,676.61
2022-09-21T07:06:55.651Z,676.60
2022-09-21T07:07:55.638Z,676.59
2022-09-21T07:10:15.915Z,676.60
2022-09-21T07:10:56.606Z,676.59
2022-09-21T07:11:55.582Z,676.60
2022-09-21T07:12:55.587Z,676.60
2022-09-21T07:13:55.624Z,676.61
2022-09-21T07:14:55.558Z,676.61
2022-09-21T07:15:55.555Z,676.60
2022-09-21T07:16:55.534Z,676.60
2022-09-21T07:18:05.439Z,676.60
2022-09-21T07:18:57.021Z,676.61
2022-09-21T07:19:55.526Z,676.61
2022-09-21T07:20:55.539Z,676.61
2022-09-21T07:21:55.474Z,676.60
2022-09-21T07:22:55.486Z,676.61
2022-09-21T07:23:55.468Z,676.62
2022-09-21T07:24:55.447Z,676.63
2022-09-21T07:25:55.435Z,676.60
2022-09-21T07:26:55.446Z,676.62
2022-09-21T07:27:55.394Z,676.61
2022-09-21T07:28:55.468Z,676.62
2022-09-21T07:29:55.379Z,676.60
2022-09-21T07:30:55.414Z,676.63
2022-09-21T07:31:55.398Z,676.62
2022-09-21T07:32:55.486Z,676.62
2022-09-21T07:33:55.328Z,676.62
2022-09-21T07:34:55.355Z,676.63
2022-09-21T07:35:55.316Z,676.63
2022-09-21T07:36:55.318Z,676.61
2022-09-21T07:37:55.295Z,676.60
2022-09-21T07:38:55.290Z,676.60
2022-09-21T07:39:55.275Z,676.62
2022-09-21T07:40:55.259Z,676.62
2022-09-21T07:41:55.267Z,676.61
2022-09-21T07:42:55.291Z,676.62
2022-09-21T07:43:55.297Z,676.63
2022-09-21T07:45:03.903Z,676.61
2022-09-21T07:45:56.293Z,676.60
2022-09-21T07:46:55.196Z,676.62
2022-09-21T07:47:55.195Z,676.61
2022-09-21T07:48:55.167Z,676.63
2022-09-21T07:49:55.167Z,676.63
2022-09-21T07:50:55.147Z,676.61
2022-09-21T07:51:55.131Z,676.61
2022-09-21T07:52:55.200Z,676.62
2022-09-21T07:53:55.115Z,676.61
2022-09-21T07:54:55.112Z,676.64
2022-09-21T07:55:55.099Z,676.63
2022-09-21T07:56:55.087Z,676.64
2022-09-21T07:57:55.077Z,676.63
2022-09-21T07:58:55.186Z,676.63
2022-09-21T07:59:55.057Z,676.62
2022-09-21T08:00:55.094Z,676.62
2022-09-21T08:01:55.112Z,676.61
2022-09-21T08:02:55.035Z,676.62
2022-09-21T08:03:55.067Z,676.63
2022-09-21T08:04:55.027Z,676.62
2022-09-21T08:05:55.059Z,676.60
2022-09-21T08:06:55.060Z,676.63
2022-09-21T08:07:55.040Z,676.61
2022-09-21T08:08:57.850Z,676.62
2022-09-21T08:09:55.060Z,676.60
2022-09-21T08:10:55.015Z,676.62
2022-09-21T08:11:55.100Z,676.60
2022-09-21T08:12:55.024Z,676.61
2022-09-21T08:13:55.143Z,676.62
2022-09-21T08:14:54.983Z,676.60
2022-09-21T08:15:55.085Z,676.62
2022-09-21T08:16:54.940Z,676.60
2022-09-21T08:17:54.871Z,676.59
2022-09-21T08:18:55.287Z,676.61
2022-09-21T08:19:54.915Z,676.63
2022-09-21T08:20:54.942Z,676.61
2022-09-21T08:21:57.667Z,676.64
2022-09-21T08:22:54.783Z,676.62
2022-09-21T08:23:54.787Z,676.61
2022-09-21T08:24:54.788Z,676.62
2022-09-21T08:25:54.752Z,676.60
2022-09-21T08:26:54.739Z,676.60
2022-09-21T08:27:54.764Z,676.60
2022-09-21T08:28:54.869Z,676.60
2022-09-21T08:29:54.700Z,676.61
2022-09-21T08:30:54.699Z,676.61
2022-09-21T08:31:54.763Z,676.62
2022-09-21T08:32:54.676Z,676.60
2022-09-21T08:33:54.672Z,676.62
2022-09-21T08:34:54.656Z,676.59
2022-09-21T08:35:54.621Z,676.61
2022-09-21T08:36:55.850Z,676.60
2022-09-21T08:37:54.623Z,676.60
2022-09-21T08:38:54.709Z,676.60
2022-09-21T08:39:54.592Z,676.61
2022-09-21T08:40:54.587Z,676.61
2022-09-21T08:41:54.586Z,676.61
2022-09-21T08:42:54.560Z,676.62
2022-09-21T08:43:54.540Z,676.61
2022-09-21T08:44:54.539Z,676.60
2022-09-21T08:45:54.518Z,676.59
2022-09-21T08:46:54.593Z,676.58
2022-09-21T08:47:54.501Z,676.59
2022-09-21T08:48:54.528Z,676.58
2022-09-21T08:49:54.472Z,676.59
2022-09-21T08:50:54.468Z,676.59
2022-09-21T08:51:54.460Z,676.59
2022-09-21T08:52:54.480Z,676.59
2022-09-21T08:53:54.428Z,676.59
2022-09-21T08:54:54.418Z,676.59
2022-09-21T08:55:54.733Z,676.59
2022-09-21T08:57:04.875Z,676.58
2022-09-21T08:57:55.540Z,676.59
2022-09-21T08:58:54.475Z,676.59
2022-09-21T08:59:54.360Z,676.59
2022-09-21T09:00:54.375Z,676.60
2022-09-21T09:01:54.398Z,676.59
2022-09-21T09:02:54.406Z,676.59
2022-09-21T09:03:54.334Z,676.59
2022-09-21T09:04:54.312Z,676.58
2022-09-21T09:05:54.316Z,676.58
2022-09-21T09:06:54.280Z,676.58
2022-09-21T09:07:54.260Z,676.57
2022-09-21T09:08:54.321Z,676.58
2022-09-21T09:09:54.246Z,676.57
2022-09-21T09:10:54.248Z,676.57
2022-09-21T09:11:54.237Z,676.56
2022-09-21T09:12:54.232Z,676.57
2022-09-21T09:13:54.206Z,676.57
2022-09-21T09:14:54.277Z,676.57
2022-09-21T09:15:54.201Z,676.58
2022-09-21T09:16:54.281Z,676.58
2022-09-21T09:17:54.333Z,676.58
2022-09-21T09:18:54.393Z,676.58
2022-09-21T09:19:54.345Z,676.57
2022-09-21T09:20:54.233Z,676.58
2022-09-21T09:21:54.249Z,676.57
2022-09-21T09:22:54.264Z,676.57
2022-09-21T09:23:54.225Z,676.58
2022-09-21T09:24:54.257Z,676.57
2022-09-21T09:25:54.224Z,676.58
2022-09-21T09:26:54.573Z,676.57
2022-09-21T09:27:54.268Z,676.57
2022-09-21T09:28:54.314Z,676.56
2022-09-21T09:29:54.237Z,676.57
2022-09-21T09:30:54.193Z,676.58
2022-09-21T09:31:54.162Z,676.57
2022-09-21T09:32:54.009Z,676.58
2022-09-21T09:33:53.986Z,676.57
2022-09-21T09:34:53.985Z,676.57
2022-09-21T09:35:53.957Z,676.57
2022-09-21T09:36:58.769Z,676.57
2022-09-21T09:37:54.948Z,676.57
2022-09-21T09:38:53.928Z,676.56
2022-09-21T09:39:53.917Z,676.56
2022-09-21T09:40:53.909Z,676.57
2022-09-21T09:41:53.887Z,676.56
2022-09-21T09:42:53.897Z,676.57
2022-09-21T09:43:53.888Z,676.58
2022-09-21T09:44:53.881Z,676.57
2022-09-21T09:45:53.832Z,676.57
2022-09-21T09:46:53.878Z,676.57
2022-09-21T09:47:53.840Z,676.56
2022-09-21T09:48:54.398Z,676.56
2022-09-21T09:49:53.805Z,676.57
2022-09-21T09:50:53.789Z,676.57
2022-09-21T09:51:53.789Z,676.56
2022-09-21T09:52:53.769Z,676.57
2022-09-21T09:53:53.741Z,676.56
2022-09-21T09:54:53.752Z,676.56
2022-09-21T09:55:53.721Z,676.56
2022-09-21T09:56:53.729Z,676.56
2022-09-21T09:57:53.759Z,676.55
2022-09-21T09:58:53.690Z,676.55
2022-09-21T09:59:54.688Z,676.56
2022-09-21T10:00:53.681Z,676.56
2022-09-21T10:01:53.713Z,676.57
2022-09-21T10:02:53.678Z,676.55
2022-09-21T10:03:53.649Z,676.55
2022-09-21T10:04:53.638Z,676.55
2022-09-21T10:05:53.618Z,676.57
2022-09-21T10:06:53.610Z,676.56
2022-09-21T10:07:53.608Z,676.57
2022-09-21T10:08:53.629Z,676.56
2022-09-21T10:09:53.570Z,676.57
2022-09-21T10:10:53.562Z,676.57
2022-09-21T10:11:53.542Z,676.56
2022-09-21T10:12:53.569Z,676.56
2022-09-21T10:13:53.531Z,676.56
2022-09-21T10:14:53.514Z,676.56
2022-09-21T10:15:53.531Z,676.57
2022-09-21T10:16:53.493Z,676.56
2022-09-21T10:17:53.591Z,676.56
2022-09-21T10:18:53.482Z,676.56
2022-09-21T10:19:53.450Z,676.55
2022-09-21T10:20:53.450Z,676.56
2022-09-21T10:21:53.434Z,676.56
2022-09-21T10:22:53.454Z,676.56
2022-09-21T10:23:54.231Z,676.56
2022-09-21T10:24:53.409Z,676.55
2022-09-21T10:25:53.381Z,676.55
2022-09-21T10:26:53.381Z,676.56
2022-09-21T10:27:53.361Z,676.55
2022-09-21T10:28:53.409Z,676.56
2022-09-21T10:29:53.375Z,676.56
2022-09-21T10:30:53.446Z,676.56
2022-09-21T10:31:53.414Z,676.57
2022-09-21T10:32:53.395Z,676.56
2022-09-21T10:33:53.473Z,676.56
2022-09-21T10:34:53.454Z,676.56
2022-09-21T10:35:53.474Z,676.54
2022-09-21T10:36:53.486Z,676.55
2022-09-21T10:37:53.254Z,676.57
2022-09-21T10:38:53.247Z,676.54
2022-09-21T10:39:53.238Z,676.56
2022-09-21T10:40:53.250Z,676.56
2022-09-21T10:41:53.202Z,676.56
2022-09-21T10:42:53.206Z,676.56
2022-09-21T10:43:53.189Z,676.56
2022-09-21T10:44:53.271Z,676.57
2022-09-21T10:45:53.236Z,676.57
2022-09-21T10:46:53.262Z,676.55
2022-09-21T10:47:53.374Z,676.55
2022-09-21T10:48:53.137Z,676.56
2022-09-21T10:49:53.154Z,676.57
2022-09-21T10:50:53.107Z,676.55
2022-09-21T10:51:53.095Z,676.56
2022-09-21T10:52:53.110Z,676.56
2022-09-21T10:53:54.447Z,676.55
2022-09-21T10:54:53.082Z,676.55
2022-09-21T10:56:11.758Z,676.55
2022-09-21T10:56:54.080Z,676.55
2022-09-21T10:57:53.026Z,676.56
2022-09-21T10:58:53.022Z,676.55
2022-09-21T10:59:53.022Z,676.54
2022-09-21T11:00:53.024Z,676.55
2022-09-21T11:01:53.084Z,676.56
2022-09-21T11:02:53.028Z,676.55
2022-09-21T11:03:52.970Z,676.56
2022-09-21T11:04:52.966Z,676.57
2022-09-21T11:05:52.980Z,676.56
2022-09-21T11:06:52.931Z,676.57
2022-09-21T11:07:52.943Z,676.56
2022-09-21T11:08:52.930Z,676.55
2022-09-21T11:09:52.911Z,676.56
2022-09-21T11:10:52.881Z,676.56
2022-09-21T11:11:52.879Z,676.56
2022-09-21T11:12:52.850Z,676.55
2022-09-21T11:13:52.863Z,676.57
2022-09-21T11:14:52.842Z,676.56
2022-09-21T11:15:52.942Z,676.56
2022-09-21T11:16:52.848Z,676.56
2022-09-21T11:17:52.846Z,676.55
2022-09-21T11:18:52.791Z,676.56
2022-09-21T11:19:52.782Z,676.56
2022-09-21T11:20:52.770Z,676.57
2022-09-21T11:21:52.763Z,676.56
2022-09-21T11:22:57.233Z,676.57
2022-09-21T11:23:52.742Z,676.57
2022-09-21T11:24:52.736Z,676.57
2022-09-21T11:25:52.764Z,676.57
2022-09-21T11:26:52.703Z,676.58
2022-09-21T11:27:52.755Z,676.56
2022-09-21T11:28:52.724Z,676.57
2022-09-21T11:29:52.871Z,676.57
2022-09-21T11:30:52.725Z,676.56
2022-09-21T11:31:52.665Z,676.57
2022-09-21T11:32:52.635Z,676.58
2022-09-21T11:33:52.643Z,676.56
2022-09-21T11:34:52.635Z,676.56
2022-09-21T11:35:52.697Z,676.58
2022-09-21T11:36:52.583Z,676.57
2022-09-21T11:37:52.683Z,676.58
2022-09-21T11:38:52.578Z,676.56
2022-09-21T11:39:52.567Z,676.57
2022-09-21T11:40:52.545Z,676.57
2022-09-21T11:41:52.549Z,676.57
2022-09-21T11:42:52.527Z,676.57
2022-09-21T11:43:52.535Z,676.57
2022-09-21T11:44:52.499Z,676.57
2022-09-21T11:45:52.510Z,676.57
2022-09-21T11:46:52.469Z,676.57
2022-09-21T11:47:52.479Z,676.57
2022-09-21T11:48:52.468Z,676.57
2022-09-21T11:50:03.068Z,676.58
2022-09-21T11:50:53.429Z,676.57
2022-09-21T11:51:55.916Z,676.57
2022-09-21T11:52:53.399Z,676.56
2022-09-21T11:53:52.427Z,676.58
2022-09-21T11:54:52.379Z,676.57
2022-09-21T11:55:52.379Z,676.57
2022-09-21T11:56:52.359Z,676.57
2022-09-21T11:57:54.921Z,676.55
2022-09-21T11:58:53.061Z,676.57
2022-09-21T11:59:52.683Z,676.56
2022-09-21T12:00:52.314Z,676.57
2022-09-21T12:01:52.337Z,676.57
2022-09-21T12:02:52.628Z,676.57
2022-09-21T12:03:52.299Z,676.58
2022-09-21T12:04:52.275Z,676.57
2022-09-21T12:05:52.267Z,676.57
2022-09-21T12:06:52.247Z,676.58
2022-09-21T12:07:52.248Z,676.57
2022-09-21T12:08:52.263Z,676.57
2022-09-21T12:09:52.228Z,676.57
2022-09-21T12:10:52.191Z,676.58
2022-09-21T12:11:52.200Z,676.57
2022-09-21T12:12:52.188Z,676.58
2022-09-21T12:13:52.223Z,676.57
2022-09-21T12:14:52.213Z,676.57
2022-09-21T12:15:52.156Z,676.58
2022-09-21T12:16:52.154Z,676.57
2022-09-21T12:17:52.140Z,676.58
2022-09-21T12:18:52.220Z,676.57
2022-09-21T12:19:52.127Z,676.58
2022-09-21T12:20:52.124Z,676.57
2022-09-21T12:21:52.119Z,676.57
2022-09-21T12:22:52.144Z,676.56
2022-09-21T12:23:52.183Z,676.57
2022-09-21T12:24:52.227Z,676.58
2022-09-21T12:25:52.211Z,676.57
2022-09-21T12:26:52.204Z,676.58
2022-09-21T12:27:52.212Z,676.57
2022-09-21T12:28:52.215Z,676.58
2022-09-21T12:29:52.267Z,676.58